createdAt,value
2023-05-08T00:00:50.218Z,99.90
2023-05-08T00:03:19.034Z,99.90
2023-05-08T00:05:48.026Z,99.90
2023-05-08T00:08:18.089Z,99.90
2023-05-08T00:10:46.792Z,99.90
2023-05-08T00:13:16.786Z,99.90
2023-05-08T00:15:45.517Z,99.90
2023-05-08T00:18:14.169Z,99.90
2023-05-08T00:20:42.846Z,99.90
2023-05-08T00:23:11.377Z,99.90
2023-05-08T00:25:41.390Z,99.90
2023-05-08T00:28:10.055Z,99.90
2023-05-08T00:30:38.938Z,99.90
2023-05-08T00:33:07.650Z,99.90
2023-05-08T00:35:36.414Z,99.90
2023-05-08T00:38:05.166Z,99.90
2023-05-08T00:40:33.843Z,99.90
2023-05-08T00:43:04.031Z,99.90
2023-05-08T00:45:37.472Z,99.90
2023-05-08T00:48:06.882Z,99.90
2023-05-08T00:50:36.054Z,99.90
2023-05-08T00:53:05.734Z,99.90
2023-05-08T00:55:34.506Z,99.90
2023-05-08T00:58:04.817Z,99.90
2023-05-08T01:00:34.617Z,99.90
2023-05-08T01:03:03.651Z,99.90
2023-05-08T01:05:33.630Z,99.90
2023-05-08T01:08:02.767Z,99.90
2023-05-08T01:10:45.617Z,99.90
2023-05-08T01:13:35.681Z,99.90
2023-05-08T01:16:09.908Z,99.90
2023-05-08T01:18:43.978Z,99.90
2023-05-08T01:21:20.156Z,99.90
2023-05-08T01:24:23.292Z,99.90
2023-05-08T01:27:39.858Z,99.90
2023-05-08T01:30:48.092Z,99.90
2023-05-08T01:33:26.089Z,99.90
2023-05-08T01:36:03.988Z,99.90
2023-05-08T01:38:40.952Z,99.90
2023-05-08T01:41:15.678Z,99.90
2023-05-08T01:43:53.863Z,99.90
2023-05-08T01:46:26.778Z,99.90
2023-05-08T01:49:05.212Z,99.90
2023-05-08T01:51:40.343Z,99.90
2023-05-08T01:54:13.411Z,99.90
2023-05-08T01:56:46.107Z,99.90
2023-05-08T01:59:18.296Z,99.90
2023-05-08T02:01:48.417Z,99.90
2023-05-08T02:04:20.546Z,99.90
2023-05-08T02:06:50.800Z,99.90
2023-05-08T02:09:22.765Z,99.90
2023-05-08T02:11:54.439Z,99.90
2023-05-08T02:14:25.356Z,99.90
2023-05-08T02:16:57.744Z,99.90
2023-05-08T02:19:31.259Z,99.90
2023-05-08T02:22:01.847Z,99.90
2023-05-08T02:24:33.526Z,99.90
2023-05-08T02:27:02.657Z,99.90
2023-05-08T02:29:32.729Z,99.90
2023-05-08T02:32:03.573Z,99.90
2023-05-08T02:34:34.664Z,99.90
2023-05-08T02:37:05.393Z,99.90
2023-05-08T02:39:37.637Z,99.90
2023-05-08T02:42:06.962Z,99.90
2023-05-08T02:44:36.182Z,99.90
2023-05-08T02:47:15.840Z,99.90
2023-05-08T02:49:54.158Z,99.90
2023-05-08T02:52:29.739Z,99.90
2023-05-08T02:55:04.694Z,99.90
2023-05-08T02:57:40.952Z,99.90
2023-05-08T03:00:16.432Z,99.90
2023-05-08T03:02:49.579Z,99.90
2023-05-08T03:05:24.988Z,99.90
2023-05-08T03:07:57.429Z,99.90
2023-05-08T03:10:33.157Z,99.90
2023-05-08T03:13:06.387Z,99.90
2023-05-08T03:15:42.771Z,99.90
2023-05-08T03:18:15.069Z,99.90
2023-05-08T03:20:49.191Z,99.90
2023-05-08T03:23:21.861Z,99.90
2023-05-08T03:25:50.829Z,99.90
2023-05-08T03:28:21.442Z,99.90
2023-05-08T03:30:52.416Z,99.90
2023-05-08T03:33:23.353Z,99.90
2023-05-08T03:35:56.256Z,99.90
2023-05-08T03:38:25.401Z,99.90
2023-05-08T03:40:54.696Z,99.90
2023-05-08T03:43:24.565Z,99.90
2023-05-08T03:45:53.961Z,99.90
2023-05-08T03:48:24.009Z,99.90
2023-05-08T03:50:55.376Z,99.90
2023-05-08T03:53:24.495Z,99.90
2023-05-08T03:55:53.434Z,99.90
2023-05-08T03:58:30.163Z,99.90
2023-05-08T04:01:06.781Z,99.90
2023-05-08T04:03:47.876Z,99.90
2023-05-08T04:06:30.702Z,99.90
2023-05-08T04:09:09.439Z,99.90
2023-05-08T04:11:46.018Z,99.90
2023-05-08T04:14:20.746Z,99.90
2023-05-08T04:16:53.246Z,99.90
2023-05-08T04:19:28.798Z,99.90
2023-05-08T04:22:03.282Z,99.90
2023-05-08T04:24:35.180Z,99.90
2023-05-08T04:27:04.820Z,99.90
2023-05-08T04:29:35.122Z,99.90
2023-05-08T04:32:08.071Z,99.90
2023-05-08T04:34:38.122Z,99.90
2023-05-08T04:37:12.783Z,99.90
2023-05-08T04:39:43.128Z,99.90
2023-05-08T04:42:13.110Z,99.90
2023-05-08T04:44:42.218Z,99.90
2023-05-08T04:47:11.243Z,99.90
2023-05-08T04:49:40.049Z,99.90
2023-05-08T04:52:11.105Z,99.90
2023-05-08T04:54:40.553Z,99.90
2023-05-08T04:57:09.816Z,99.90
2023-05-08T04:59:39.396Z,99.90
2023-05-08T05:02:09.359Z,99.90
2023-05-08T05:04:39.003Z,99.90
2023-05-08T05:07:11.126Z,99.90
2023-05-08T05:09:40.634Z,99.90
2023-05-08T05:12:10.234Z,99.90
2023-05-08T05:14:39.453Z,99.90
2023-05-08T05:17:09.334Z,99.90
2023-05-08T05:19:38.264Z,99.90
2023-05-08T05:22:09.553Z,99.90
2023-05-08T05:24:39.935Z,99.90
2023-05-08T05:27:08.987Z,99.90
2023-05-08T05:29:37.880Z,99.90
2023-05-08T05:32:07.673Z,99.90
2023-05-08T05:34:36.588Z,99.90
2023-05-08T05:37:05.731Z,99.90
2023-05-08T05:39:36.317Z,99.90
2023-05-08T05:42:06.007Z,99.90
2023-05-08T05:44:34.933Z,99.90
2023-05-08T05:47:05.241Z,99.90
2023-05-08T05:49:34.445Z,99.90
2023-05-08T05:52:03.165Z,99.90
2023-05-08T05:54:31.887Z,99.90
2023-05-08T05:57:02.270Z,99.90
2023-05-08T05:59:30.981Z,99.90
2023-05-08T06:01:59.883Z,99.90
2023-05-08T06:04:28.942Z,99.90
2023-05-08T06:06:58.110Z,99.90
2023-05-08T06:09:26.740Z,99.90
2023-05-08T06:11:55.525Z,99.90
2023-05-08T06:14:25.726Z,99.90
2023-05-08T06:16:54.412Z,99.90
2023-05-08T06:19:24.854Z,99.90
2023-05-08T06:21:53.796Z,99.90
2023-05-08T06:24:22.703Z,99.90
2023-05-08T06:26:51.914Z,99.90
2023-05-08T06:29:20.842Z,99.90
2023-05-08T06:31:51.691Z,99.90
2023-05-08T06:34:20.827Z,99.90
2023-05-08T06:36:49.486Z,99.90
2023-05-08T06:39:18.667Z,99.90
2023-05-08T06:41:49.247Z,99.90
2023-05-08T06:44:26.553Z,99.90
2023-05-08T06:46:57.325Z,99.90
2023-05-08T06:49:26.456Z,99.90
2023-05-08T06:51:57.692Z,99.90
2023-05-08T06:54:26.988Z,99.90
2023-05-08T06:56:56.102Z,99.90
2023-05-08T06:59:25.250Z,99.90
2023-05-08T07:01:54.399Z,99.90
2023-05-08T07:04:25.300Z,99.90
2023-05-08T07:06:54.307Z,99.90
2023-05-08T07:09:23.245Z,99.90
2023-05-08T07:11:52.329Z,99.90
2023-05-08T07:14:21.444Z,99.90
2023-05-08T07:16:50.674Z,99.90
2023-05-08T07:19:22.380Z,99.90
2023-05-08T07:21:53.533Z,99.90
2023-05-08T07:24:23.346Z,99.90
2023-05-08T07:26:52.474Z,99.90
2023-05-08T07:29:21.502Z,99.90
2023-05-08T07:31:52.198Z,99.90
2023-05-08T07:34:21.217Z,99.90
2023-05-08T07:36:50.116Z,99.90
2023-05-08T07:39:20.607Z,99.90
2023-05-08T07:41:49.954Z,99.90
2023-05-08T07:44:19.048Z,99.90
2023-05-08T07:46:47.919Z,99.90
2023-05-08T07:49:16.918Z,99.90
2023-05-08T07:51:46.060Z,99.90
2023-05-08T07:54:14.766Z,99.90
2023-05-08T07:56:45.338Z,99.90
2023-05-08T07:59:14.398Z,99.90
2023-05-08T08:01:47.641Z,99.90
2023-05-08T08:04:16.557Z,99.90
2023-05-08T08:06:45.772Z,99.90
2023-05-08T08:09:14.656Z,99.90
2023-05-08T08:11:45.374Z,99.90
2023-05-08T08:14:14.401Z,99.90
2023-05-08T08:16:43.781Z,99.90
2023-05-08T08:19:12.839Z,99.90
2023-05-08T08:21:44.363Z,99.90
2023-05-08T08:24:13.728Z,99.90
2023-05-08T08:26:42.742Z,99.90
2023-05-08T08:29:13.574Z,99.90
2023-05-08T08:31:42.875Z,99.90
2023-05-08T08:34:12.004Z,99.90
2023-05-08T08:36:41.093Z,99.90
2023-05-08T08:39:12.488Z,99.90
2023-05-08T08:41:42.572Z,99.90
2023-05-08T08:44:13.218Z,99.90
2023-05-08T08:46:51.726Z,99.90
2023-05-08T08:49:25.729Z,99.90
2023-05-08T08:51:59.431Z,99.90
2023-05-08T08:54:32.128Z,99.90
2023-05-08T08:57:03.026Z,99.90
2023-05-08T08:59:34.856Z,99.90
2023-05-08T09:02:12.045Z,99.90
2023-05-08T09:04:41.257Z,99.90
2023-05-08T09:07:11.791Z,99.90
2023-05-08T09:09:44.409Z,99.90
2023-05-08T09:12:14.295Z,99.90
2023-05-08T09:14:45.023Z,99.90
2023-05-08T09:17:14.301Z,99.90
2023-05-08T09:19:44.350Z,99.90
2023-05-08T09:22:13.930Z,99.90
2023-05-08T09:24:59.637Z,99.90
2023-05-08T09:27:30.080Z,99.90
2023-05-08T09:30:08.393Z,99.90
2023-05-08T09:32:38.496Z,99.90
2023-05-08T09:35:09.151Z,99.90
2023-05-08T09:37:40.754Z,99.90
2023-05-08T09:40:21.053Z,99.90
2023-05-08T09:42:51.335Z,99.90
2023-05-08T09:45:32.447Z,99.90
2023-05-08T09:48:01.216Z,98.80
2023-05-08T09:50:29.973Z,99.90
2023-05-08T09:52:58.692Z,99.90
2023-05-08T09:55:27.234Z,99.90
2023-05-08T09:57:58.076Z,98.70
2023-05-08T10:00:28.710Z,99.90
2023-05-08T10:03:00.812Z,96.60
2023-05-08T10:05:31.604Z,99.20
2023-05-08T10:08:18.498Z,98.20
2023-05-08T10:10:47.950Z,99.90
2023-05-08T10:13:17.075Z,99.90
2023-05-08T10:15:46.449Z,99.90
2023-05-08T10:18:19.192Z,99.50
2023-05-08T10:20:50.187Z,99.90
2023-05-08T10:23:20.012Z,97.80
2023-05-08T10:25:54.670Z,96.80
2023-05-08T10:28:34.019Z,98.30
2023-05-08T10:31:05.460Z,95.60
2023-05-08T10:33:36.601Z,98.60
2023-05-08T10:36:06.249Z,95.30
2023-05-08T10:38:36.148Z,96.80
2023-05-08T10:41:05.510Z,97.50
2023-05-08T10:43:37.126Z,99.90
2023-05-08T10:46:11.856Z,95.10
2023-05-08T10:48:57.782Z,93.60
2023-05-08T10:51:52.275Z,93.80
2023-05-08T10:54:29.239Z,94.60
2023-05-08T10:57:10.148Z,95.00
2023-05-08T10:59:39.560Z,95.40
2023-05-08T11:02:09.598Z,97.00
2023-05-08T11:04:40.077Z,95.00
2023-05-08T11:07:09.208Z,97.30
2023-05-08T11:09:47.788Z,94.70
2023-05-08T11:12:24.080Z,98.30
2023-05-08T11:15:00.323Z,94.00
2023-05-08T11:17:29.149Z,94.70
2023-05-08T11:20:00.956Z,96.40
2023-05-08T11:22:31.148Z,93.70
2023-05-08T11:25:02.228Z,97.50
2023-05-08T11:27:42.766Z,96.40
2023-05-08T11:30:35.796Z,92.30
2023-05-08T11:33:15.575Z,97.20
2023-05-08T11:35:50.945Z,95.50
2023-05-08T11:38:22.484Z,97.70
2023-05-08T11:40:58.027Z,97.80
2023-05-08T11:43:28.571Z,97.50
2023-05-08T11:46:02.996Z,95.40
2023-05-08T11:48:31.975Z,92.50
2023-05-08T11:51:02.689Z,92.30
2023-05-08T11:53:32.477Z,90.90
2023-05-08T11:56:01.520Z,94.20
2023-05-08T11:58:31.256Z,96.10
2023-05-08T12:00:59.968Z,92.00
2023-05-08T12:03:28.851Z,92.90
2023-05-08T12:05:59.312Z,94.30
2023-05-08T12:08:29.444Z,93.80
2023-05-08T12:10:59.071Z,91.10
2023-05-08T12:13:29.503Z,93.90
2023-05-08T12:16:00.310Z,95.20
2023-05-08T12:18:30.853Z,91.10
2023-05-08T12:21:01.845Z,93.00
2023-05-08T12:23:32.217Z,89.00
2023-05-08T12:26:02.275Z,88.80
2023-05-08T12:28:32.534Z,91.90
2023-05-08T12:31:01.633Z,88.60
2023-05-08T12:33:30.713Z,90.30
2023-05-08T12:35:59.789Z,90.80
2023-05-08T12:38:29.485Z,82.90
2023-05-08T12:41:00.755Z,83.90
2023-05-08T12:43:33.419Z,83.80
2023-05-08T12:46:02.286Z,86.70
2023-05-08T12:48:31.662Z,85.30
2023-05-08T12:51:05.168Z,86.70
2023-05-08T12:53:34.386Z,85.40
2023-05-08T12:56:06.200Z,87.60
2023-05-08T12:58:35.921Z,89.10
2023-05-08T13:01:10.063Z,84.10
2023-05-08T13:03:39.012Z,86.90
2023-05-08T13:06:08.437Z,85.30
2023-05-08T13:08:39.245Z,90.30
2023-05-08T13:11:09.409Z,86.50
2023-05-08T13:13:38.463Z,84.20
2023-05-08T13:16:08.280Z,83.60
2023-05-08T13:18:37.225Z,79.90
2023-05-08T13:21:06.372Z,86.20
2023-05-08T13:23:35.493Z,81.90
2023-05-08T13:26:04.363Z,84.70
2023-05-08T13:28:34.651Z,83.20
2023-05-08T13:31:03.407Z,80.60
2023-05-08T13:33:31.972Z,84.00
2023-05-08T13:36:00.676Z,81.50
2023-05-08T13:38:29.350Z,82.80
2023-05-08T13:40:58.013Z,79.80
2023-05-08T13:43:26.690Z,81.70
2023-05-08T13:45:56.732Z,79.60
2023-05-08T13:48:25.427Z,83.80
2023-05-08T13:50:54.267Z,87.80
2023-05-08T13:53:22.889Z,81.30
2023-05-08T13:55:51.662Z,84.00
2023-05-08T13:58:20.317Z,80.50
2023-05-08T14:00:49.853Z,84.00
2023-05-08T14:03:19.961Z,85.30
2023-05-08T14:05:48.728Z,84.40
2023-05-08T14:08:17.404Z,83.70
2023-05-08T14:10:45.938Z,83.20
2023-05-08T14:13:14.593Z,82.50
2023-05-08T14:15:43.370Z,83.30
2023-05-08T14:18:12.097Z,82.00
2023-05-08T14:20:43.926Z,81.00
2023-05-08T14:23:13.983Z,84.10
2023-05-08T14:25:42.735Z,81.90
2023-05-08T14:28:11.368Z,82.80
2023-05-08T14:30:39.941Z,81.70
2023-05-08T14:33:08.633Z,82.40
2023-05-08T14:35:37.692Z,80.30
2023-05-08T14:38:07.630Z,82.00
2023-05-08T14:40:36.307Z,78.10
2023-05-08T14:43:05.017Z,81.60
2023-05-08T14:45:33.701Z,82.10
2023-05-08T14:48:02.625Z,82.40
2023-05-08T14:50:31.323Z,82.90
2023-05-08T14:53:00.126Z,82.10
2023-05-08T14:55:30.294Z,79.20
2023-05-08T14:57:59.331Z,84.80
2023-05-08T15:00:28.071Z,79.90
2023-05-08T15:02:56.916Z,80.90
2023-05-08T15:05:25.782Z,79.00
2023-05-08T15:07:54.659Z,80.90
2023-05-08T15:10:23.287Z,81.60
2023-05-08T15:12:53.420Z,80.70
2023-05-08T15:15:22.250Z,84.20
2023-05-08T15:17:50.922Z,81.20
2023-05-08T15:20:21.052Z,80.10
2023-05-08T15:22:49.830Z,82.20
2023-05-08T15:25:18.567Z,83.90
2023-05-08T15:27:52.433Z,82.10
2023-05-08T15:30:22.852Z,80.10
2023-05-08T15:32:51.884Z,79.80
2023-05-08T15:35:20.657Z,81.30
2023-05-08T15:37:49.313Z,79.50
2023-05-08T15:40:18.168Z,80.50
2023-05-08T15:42:46.845Z,81.50
2023-05-08T15:45:16.540Z,81.70
2023-05-08T15:47:46.686Z,86.10
2023-05-08T15:50:15.678Z,82.60
2023-05-08T15:52:44.254Z,83.90
2023-05-08T15:55:13.018Z,83.10
2023-05-08T15:57:41.861Z,84.60
2023-05-08T16:00:11.789Z,82.20
2023-05-08T16:02:40.697Z,82.10
2023-05-08T16:05:11.421Z,83.50
2023-05-08T16:07:40.239Z,79.30
2023-05-08T16:10:10.214Z,81.10
2023-05-08T16:12:38.917Z,84.70
2023-05-08T16:15:08.204Z,83.90
2023-05-08T16:17:36.926Z,81.30
2023-05-08T16:20:06.314Z,81.70
2023-05-08T16:22:36.902Z,85.20
2023-05-08T16:25:06.702Z,84.20
2023-05-08T16:27:35.797Z,83.90
2023-05-08T16:30:04.726Z,82.20
2023-05-08T16:32:33.335Z,86.20
2023-05-08T16:35:02.504Z,82.70
2023-05-08T16:37:31.417Z,84.90
2023-05-08T16:40:01.638Z,84.10
2023-05-08T16:42:30.882Z,82.90
2023-05-08T16:44:59.513Z,84.50
2023-05-08T16:47:28.189Z,83.90
2023-05-08T16:49:56.940Z,86.50
2023-05-08T16:52:25.935Z,85.00
2023-05-08T16:54:54.722Z,86.00
2023-05-08T16:57:24.569Z,83.90
2023-05-08T16:59:53.274Z,84.30
2023-05-08T17:02:22.252Z,85.00
2023-05-08T17:04:51.151Z,83.20
2023-05-08T17:07:19.731Z,83.90
2023-05-08T17:09:52.981Z,82.70
2023-05-08T17:12:21.862Z,82.90
2023-05-08T17:14:52.078Z,81.80
2023-05-08T17:17:20.798Z,82.40
2023-05-08T17:19:49.530Z,83.70
2023-05-08T17:22:20.519Z,83.30
2023-05-08T17:24:49.158Z,83.20
2023-05-08T17:27:18.725Z,83.80
2023-05-08T17:29:47.332Z,84.90
2023-05-08T17:32:17.473Z,84.50
2023-05-08T17:34:46.321Z,87.00
2023-05-08T17:37:15.085Z,89.00
2023-05-08T17:39:43.765Z,90.60
2023-05-08T17:42:12.347Z,90.60
2023-05-08T17:44:41.089Z,91.90
2023-05-08T17:47:09.826Z,93.40
2023-05-08T17:49:39.867Z,94.40
2023-05-08T17:52:08.392Z,95.20
2023-05-08T17:54:37.070Z,96.40
2023-05-08T17:57:05.842Z,97.70
2023-05-08T17:59:34.421Z,98.00
2023-05-08T18:02:03.229Z,98.80
2023-05-08T18:04:31.976Z,99.20
2023-05-08T18:07:04.032Z,99.90
2023-05-08T18:09:32.774Z,99.90
2023-05-08T18:12:02.530Z,99.90
2023-05-08T18:14:32.063Z,99.90
2023-05-08T18:17:00.976Z,99.90
2023-05-08T18:19:29.722Z,99.90
2023-05-08T18:21:58.467Z,99.90
2023-05-08T18:24:29.914Z,99.90
2023-05-08T18:26:58.680Z,99.90
2023-05-08T18:29:27.521Z,99.90
2023-05-08T18:31:56.361Z,99.90
2023-05-08T18:34:26.210Z,99.90
2023-05-08T18:36:56.152Z,99.90
2023-05-08T18:39:28.048Z,99.90
2023-05-08T18:41:56.708Z,99.90
2023-05-08T18:44:25.583Z,99.90
2023-05-08T18:46:54.517Z,99.90
2023-05-08T18:49:23.230Z,99.90
2023-05-08T18:51:51.828Z,99.90
2023-05-08T18:54:20.534Z,99.90
2023-05-08T18:56:50.616Z,99.90
2023-05-08T18:59:19.283Z,99.90
2023-05-08T19:01:47.992Z,99.90
2023-05-08T19:04:16.663Z,99.90
2023-05-08T19:06:45.531Z,99.90
2023-05-08T19:09:14.257Z,99.90
2023-05-08T19:11:43.290Z,99.90
2023-05-08T19:14:13.488Z,99.90
2023-05-08T19:16:42.240Z,99.90
2023-05-08T19:19:10.887Z,99.90
2023-05-08T19:21:39.746Z,99.90
2023-05-08T19:24:09.358Z,99.90
2023-05-08T19:26:38.133Z,99.90
2023-05-08T19:29:06.983Z,99.90
2023-05-08T19:31:37.048Z,99.90
2023-05-08T19:34:05.848Z,99.90
2023-05-08T19:36:36.863Z,99.90
2023-05-08T19:39:06.853Z,99.90
2023-05-08T19:41:35.559Z,99.90
2023-05-08T19:44:04.250Z,99.90
2023-05-08T19:46:32.975Z,99.90
2023-05-08T19:49:03.517Z,99.90
2023-05-08T19:51:32.120Z,99.90
2023-05-08T19:54:00.801Z,99.90
2023-05-08T19:56:29.421Z,99.90
2023-05-08T19:58:58.345Z,99.90
2023-05-08T20:01:27.243Z,99.90
2023-05-08T20:03:58.172Z,99.90
2023-05-08T20:06:30.514Z,99.90
2023-05-08T20:08:59.164Z,99.90
2023-05-08T20:11:27.828Z,99.90
2023-05-08T20:13:56.487Z,99.90
2023-05-08T20:16:25.272Z,99.90
2023-05-08T20:18:54.746Z,99.90
2023-05-08T20:21:23.682Z,99.90
2023-05-08T20:23:54.121Z,99.90
2023-05-08T20:26:23.522Z,99.90
2023-05-08T20:28:52.389Z,99.90
2023-05-08T20:31:21.433Z,99.90
2023-05-08T20:33:50.253Z,99.90
2023-05-08T20:36:19.077Z,99.90
2023-05-08T20:38:47.884Z,99.90
2023-05-08T20:41:18.552Z,99.90
2023-05-08T20:43:47.420Z,99.90
2023-05-08T20:46:16.163Z,99.90
2023-05-08T20:48:45.251Z,99.90
2023-05-08T20:51:15.516Z,99.90
2023-05-08T20:53:44.811Z,99.90
2023-05-08T20:56:17.357Z,99.90
2023-05-08T20:58:49.488Z,99.90
2023-05-08T21:01:20.647Z,99.90
2023-05-08T21:03:49.964Z,99.90
2023-05-08T21:06:18.758Z,99.90
2023-05-08T21:08:47.475Z,99.90
2023-05-08T21:11:16.440Z,99.90
2023-05-08T21:13:45.680Z,99.90
2023-05-08T21:16:16.286Z,99.90
2023-05-08T21:18:45.263Z,99.90
2023-05-08T21:21:18.031Z,99.90
2023-05-08T21:23:46.987Z,99.90
2023-05-08T21:26:15.692Z,99.90
2023-05-08T21:28:44.556Z,99.90
2023-05-08T21:31:13.576Z,99.90
2023-05-08T21:33:44.171Z,99.90
2023-05-08T21:36:13.185Z,99.90
2023-05-08T21:38:42.971Z,99.90
2023-05-08T21:41:12.118Z,99.90
2023-05-08T21:43:41.180Z,99.90
2023-05-08T21:46:10.004Z,99.90
2023-05-08T21:48:38.745Z,99.90
2023-05-08T21:51:09.512Z,99.90
2023-05-08T21:53:38.811Z,99.90
2023-05-08T21:56:07.900Z,99.90
2023-05-08T21:58:36.726Z,99.90
2023-05-08T22:01:05.673Z,99.90
2023-05-08T22:03:34.337Z,99.90
2023-05-08T22:06:03.350Z,99.90
2023-05-08T22:08:33.601Z,99.90
2023-05-08T22:11:02.549Z,99.90
2023-05-08T22:13:31.499Z,99.90
2023-05-08T22:16:00.360Z,99.90
2023-05-08T22:18:29.374Z,99.90
2023-05-08T22:20:58.342Z,99.90
2023-05-08T22:23:27.339Z,99.90
2023-05-08T22:25:57.604Z,99.90
2023-05-08T22:28:26.603Z,99.90
2023-05-08T22:30:55.338Z,99.90
2023-05-08T22:33:24.269Z,99.90
2023-05-08T22:35:53.114Z,99.90
2023-05-08T22:38:22.417Z,99.90
2023-05-08T22:40:52.590Z,99.90
2023-05-08T22:43:22.970Z,99.90
2023-05-08T22:45:52.122Z,99.90
2023-05-08T22:48:21.062Z,99.90
2023-05-08T22:50:50.681Z,99.90
2023-05-08T22:53:19.584Z,99.90
2023-05-08T22:55:48.661Z,99.90
2023-05-08T22:58:17.453Z,99.90
2023-05-08T23:00:47.796Z,99.90
2023-05-08T23:03:16.685Z,99.90
2023-05-08T23:05:45.574Z,99.90
2023-05-08T23:08:14.519Z,99.90
2023-05-08T23:10:43.897Z,99.90
2023-05-08T23:13:12.785Z,99.90
2023-05-08T23:15:41.708Z,99.90
2023-05-08T23:18:11.775Z,99.90
2023-05-08T23:20:40.551Z,99.90
2023-05-08T23:23:09.190Z,99.90
2023-05-08T23:25:37.923Z,99.90
2023-05-08T23:28:06.903Z,99.90
2023-05-08T23:30:35.683Z,99.90
2023-05-08T23:33:04.356Z,99.90
2023-05-08T23:35:34.483Z,99.90
2023-05-08T23:38:03.203Z,99.90
2023-05-08T23:40:31.728Z,99.90
2023-05-08T23:43:00.455Z,99.90
2023-05-08T23:45:29.240Z,99.90
2023-05-08T23:47:58.540Z,99.90
2023-05-08T23:50:27.221Z,99.90
2023-05-08T23:52:57.321Z,99.90
2023-05-08T23:55:26.148Z,99.90
2023-05-08T23:57:54.680Z,99.90
